메인 페이지
METAR-TAF:

METAR-TAF

공항 :

사모스 섬, 그리스

위도: 37-42N, 경도: 026-55E, 고도: 2m

현재 날씨관측

예보는 18분 전, 14:20시(UTC)에 발표되었습니다.
남남동10kt, 순간 최대 풍속 23kt
온도 17°C
습도 72%
기압 999 hPa
시정 10km 이상
고도 1800ft 상공 구름 보통, 타워링 적운.
고도 2500ft 상공 구름 보통

METAR: LGSM 141420Z 16010G23KT 9999 SCT018TCU SCT025 17/12 Q0999

시각: 16:38 (14:38 UTC)

예보

예보는 3 시간 38분 전, 11:00시(UTC)에 발표되었습니다.
예보 대상 시간: 14일 12시부터 14일 21시까지 (UTC)
남동17kt
시정 10km 이상
고도 1800ft 상공 구름 조금
고도 2500ft 상공 구름 보통
일시적
14일 12시부터 14일 21시까지 (UTC)
시정: 5000m
고도 1800ft 상공 구름 보통, 타워링 적운.
고도 2000ft 상공 구름 많음
확률 40% :
일시적
14일 12시부터 14일 18시까지 (UTC)
시정: 3000m
고도 800ft 상공 구름 보통
고도 1600ft 상공 구름 조금, 적란운.
고도 2000ft 상공 구름 많음
뇌우, 비
일시적
14일 12시부터 14일 18시까지 (UTC)
남동17kt, 순간 최대 풍속 27kt

TAF: LGSM 141100Z 1412/1421 14017KT 9999 FEW018 SCT025 TEMPO 1412/1421 5000 RA SCT018TCU BKN020 PROB40 TEMPO 1412/1418 3000 TSRA SCT008 FEW016CB BKN020 TEMPO 1412/1418 14017G27KT

4,000개 이상의 공항 관측 자료 및 예보 (METAR 및 TAF 보고).

지도상에서 검색 가능한 기상관측소가 노란 점과 빨간 점으로 표시되어 있습니다.

기상관측소 명을 보려면 표시 위로 마우스를 이동하세요.

날씨 관측과 예보를 보려면 클릭하세요.

지도 변경 : 확대하려면 엑스 표시가 있는 녹색 버튼, 축소하려면 빼기 표시가 있는 녹색 버튼, 다음 페이지의 지도를 보려면 녹색 화살표를 클릭하세요.


METAR-TAF: